Flight Track Log - Related Links

Times and Time Zones

All times are in EDT time to prevent confusion due to time zone crossing. See the LYM1725 flight status page for this flight to view local times or setup timezone preferences in your user account.

Time Position Orientation Groundspeed Altitude Reporting Facility
EDT Latitude Longitude Course Direction KTS MPH feet Rate Location/Type
Fri 09:18:46 AM 39.8333 -104.7167 341° North 184 212 7,600  Level Denver TRACON
Fri 09:19:40 AM 39.8500 -104.7667 293° West 189 217 8,800 1,474 Climbing Denver TRACON
Fri 09:20:40 AM 39.8667 -104.8333 288° West 194 223 10,400 1,605 Climbing Denver TRACON
Fri 09:21:06 AM 39.8792 -104.8569 305° West 194 223 11,100 1,517 Climbing Denver Center
Fri 09:22:07 AM 39.9283 -104.8817 339° North 192 221 12,600 1,328 Climbing Denver Center
Fri 09:23:08 AM 39.9814 -104.8822 360° North 192 221 13,800 1,230 Climbing Denver Center
Fri 09:24:00 AM 40.0579 -104.7664 341° North  Level FlightAware Approximate
Fri 09:24:09 AM 40.0353 -104.8872 356° North 193 222 15,100  Level Denver Center
Fri 09:25:10 AM 40.0917 -104.8931 355° North 201 231 16,300 1,230 Climbing Denver Center
Fri 09:26:11 AM 40.1453 -104.8964 357° North 193 222 17,600 984 Climbing Denver Center
Fri 09:27:12 AM 40.2003 -104.8967 360° North 196 226 18,300 851 Climbing Denver Center
Fri 09:28:25 AM 40.2583 -104.9003 357° North 196 226 19,500 761 Climbing Denver Center
Fri 09:29:26 AM 40.3261 -104.9033 358° North 199 229 20,000 295 Climbing Denver Center
Fri 09:30:27 AM 40.3897 -104.9139 353° North 231 266 20,100  Climbing Denver Center
Fri 09:31:28 AM 40.4533 -104.9478 338° Northwest 243 280 20,000 -49 Descending Denver Center
Fri 09:32:29 AM 40.5206 -104.9728 344° North 252 290 20,000  Level Denver Center
Fri 09:33:30 AM 40.5908 -104.9858 352° North 255 293 20,000  Level Denver Center
Fri 09:34:31 AM 40.6647 -105.0125 345° North 255 293 20,000 49 Level Denver Center
Fri 09:35:32 AM 40.7314 -105.0469 339° North 258 297 20,100 49 Climbing Denver Center
Fri 09:36:33 AM 40.7861 -105.1031 322° Northwest 255 293 20,100 -49 Level Denver Center
Fri 09:37:34 AM 40.8317 -105.1733 311° West 258 297 20,000 -49 Descending Denver Center
Fri 09:38:35 AM 40.8936 -105.2444 319° Northwest 262 302 20,000  Level Denver Center
Fri 09:39:36 AM 40.9483 -105.2983 323° Northwest 260 299 20,000 49 Level Denver Center
Fri 09:40:37 AM 40.9994 -105.3611 317° Northwest 259 298 20,100 49 Climbing Denver Center
Fri 09:41:38 AM 41.0603 -105.4353 317° Northwest 263 303 20,100 -49 Level Denver Center
Fri 09:42:39 AM 41.1169 -105.4914 323° Northwest 265 305 20,000 -49 Descending Denver Center
Fri 09:43:40 AM 41.1697 -105.5531 319° Northwest 265 305 20,000  Level Denver Center
Fri 09:44:42 AM 41.2331 -105.6247 320° Northwest 269 310 20,000  Level Denver Center
Fri 09:45:43 AM 41.2892 -105.6789 324° Northwest 262 302 20,000  Level Denver Center
Fri 09:46:44 AM 41.3519 -105.7506 319° Northwest 264 304 20,000  Level Denver Center
Fri 09:47:45 AM 41.4056 -105.8072 322° Northwest 260 299 20,000  Level Denver Center
Fri 09:48:46 AM 41.4617 -105.8611 324° Northwest 260 299 20,000  Level Denver Center
Fri 09:49:47 AM 41.5247 -105.9308 320° Northwest 261 300 20,000  Level Denver Center
Fri 09:50:49 AM 41.5697 -106.0014 310° West 260 299 20,000  Level Denver Center
Fri 09:51:50 AM 41.6172 -106.0708 312° West 263 303 20,000  Level Denver Center
Fri 09:52:51 AM 41.6744 -106.1506 314° West 264 304 20,000  Level Denver Center
Fri 09:53:52 AM 41.7189 -106.2200 311° West 261 300 20,000  Level Denver Center
Fri 09:54:53 AM 41.7761 -106.3008 314° West 265 305 20,000  Level Denver Center
Fri 09:55:55 AM 41.8208 -106.3739 309° West 265 305 20,000 49 Level Denver Center
Fri 09:56:56 AM 41.8592 -106.4356 310° West 269 310 20,100  Climbing Denver Center
Fri 09:57:57 AM 41.9094 -106.5392 303° West 267 307 20,000 -49 Descending Denver Center
Fri 09:58:59 AM 41.9406 -106.6264 296° West 271 312 20,000  Level Denver Center
Fri 10:00:01 AM 41.9775 -106.7297 296° West 275 316 20,000  Level Denver Center
Fri 10:01:02 AM 42.0103 -106.8153 297° West 269 310 20,000  Level Denver Center
Fri 10:02:04 AM 42.0514 -106.9128 300° West 268 308 20,000  Level Denver Center
Fri 10:03:05 AM 42.0878 -106.9950 301° West 267 307 20,000  Level Denver Center
Fri 10:04:06 AM 42.1258 -107.0742 303° West 264 304 20,000  Level Denver Center
Fri 10:05:08 AM 42.1706 -107.1692 302° West 268 308 20,000  Level Denver Center
Fri 10:06:09 AM 42.2108 -107.2469 305° West 266 306 20,000  Level Denver Center
Fri 10:07:11 AM 42.2628 -107.3331 309° West 266 306 20,000 49 Level Denver Center
Fri 10:08:12 AM 42.3072 -107.4067 309° West 264 304 20,100  Climbing Denver Center
Fri 10:09:14 AM 42.3522 -107.4803 310° West 263 303 20,000 -57 Descending Denver Center
Fri 10:09:58 AM 42.3925 -107.5381 313° West 265 305 20,000 -57 Level Salt Lake Center
Fri 10:10:59 AM 42.4456 -107.5972 321° Northwest 261 300 19,900 -148 Descending Salt Lake Center
Fri 10:12:00 AM 42.5056 -107.6719 317° Northwest 261 300 19,700 -639 Descending Salt Lake Center
Fri 10:13:01 AM 42.5603 -107.7361 319° Northwest 270 311 18,600 -1,024 Descending Salt Lake Center
Fri 10:14:03 AM 42.6261 -107.8161 318° Northwest 281 323 17,600 -1,024 Descending Salt Lake Center
Fri 10:15:04 AM 42.6817 -107.8872 317° Northwest 285 328 16,500 -1,131 Descending Salt Lake Center
Fri 10:16:05 AM 42.7294 -107.9675 309° West 285 328 15,300 -1,415 Descending Salt Lake Center
Fri 10:17:07 AM 42.7831 -108.0592 309° West 281 323 13,600 -1,561 Descending Salt Lake Center
Fri 10:18:08 AM 42.8350 -108.1228 318° Northwest 271 312 12,100 -1,475 Descending Salt Lake Center

Login

Don't have an account? Register now (free) for customized features, flight alerts, and more!